Time;durP1;ratioP1;P1;durP2;ratioP2;P2;SDS_P1;SDS_P2;PMS_P1;PMS_P2;Temp;Humidity;BMP_temperature;BMP_pressure;BME280_temperature;BME280_humidity;BME280_pressure;Samples;Min_cycle;Max_cycle;Signal;HPM_P1;HPM_P2
2021/06/04 00:01:22;;;;;;;60.88;56.08;;;;;;;12.99;100.00;101829.94;5051016;28;20596;-77
2021/06/04 00:03:49;;;;;;;70.07;63.72;;;;;;;13.01;100.00;101826.06;5050870;28;20051;-78
2021/06/04 00:06:17;;;;;;;69.05;63.53;;;;;;;12.81;100.00;101819.75;5044170;28;20057;-81
2021/06/04 00:08:43;;;;;;;77.97;72.03;;;;;;;12.83;100.00;101821.22;5037359;28;20540;-79
2021/06/04 00:11:14;;;;;;;63.38;58.40;;;;;;;12.88;100.00;101825.13;5049965;28;20053;-78
2021/06/04 00:13:42;;;;;;;69.55;63.92;;;;;;;13.00;100.00;101820.91;5053597;28;20118;-83
2021/06/04 00:16:13;;;;;;;75.07;69.57;;;;;;;12.95;100.00;101831.31;5047774;28;20073;-78
2021/06/04 00:18:42;;;;;;;74.43;68.72;;;;;;;12.93;100.00;101826.19;5053472;28;20056;-78
2021/06/04 00:21:12;;;;;;;80.03;74.25;;;;;;;12.87;100.00;101820.81;5054545;28;20044;-80
2021/06/04 00:23:39;;;;;;;74.55;69.15;;;;;;;12.91;100.00;101825.56;5053847;28;20053;-78
2021/06/04 00:26:07;;;;;;;70.45;65.15;;;;;;;13.00;100.00;101823.56;5045671;28;20045;-80
2021/06/04 00:28:33;;;;;;;79.63;73.88;;;;;;;12.96;100.00;101825.00;5043087;28;20092;-78
2021/06/04 00:31:00;;;;;;;82.25;76.38;;;;;;;12.91;100.00;101828.22;5043737;28;20049;-78
2021/06/04 00:33:27;;;;;;;79.07;73.28;;;;;;;12.93;100.00;101818.19;5042309;28;20045;-78
2021/06/04 00:35:57;;;;;;;68.40;63.40;;;;;;;12.92;100.00;101821.06;5039556;28;20049;-80
2021/06/04 00:38:23;;;;;;;62.53;57.72;;;;;;;12.91;100.00;101819.41;5039014;28;20057;-78
2021/06/04 00:40:54;;;;;;;56.20;51.70;;;;;;;12.87;100.00;101818.97;5066167;22;20106;-88
2021/06/04 00:46:07;;;;;;;62.00;57.20;;;;;;;12.71;100.00;101817.44;5048592;28;20375;-88
2021/06/04 00:48:49;;;;;;;59.15;54.45;;;;;;;12.80;100.00;101812.78;5035133;28;20450;-87
2021/06/04 00:51:26;;;;;;;66.78;61.38;;;;;;;12.71;100.00;101812.09;5042724;28;20057;-88
2021/06/04 00:53:54;;;;;;;74.65;69.22;;;;;;;12.63;100.00;101819.41;5043716;28;20462;-88
2021/06/04 00:56:28;;;;;;;75.50;69.72;;;;;;;12.65;100.00;101812.88;5049797;28;20041;-88
2021/06/04 00:58:56;;;;;;;71.88;66.47;;;;;;;12.51;100.00;101817.25;5040108;28;20067;-88
2021/06/04 01:01:26;;;;;;;69.30;63.53;;;;;;;12.36;100.00;101819.16;5054286;28;20048;-88
2021/06/04 01:03:56;;;;;;;69.97;64.68;;;;;;;12.39;100.00;101810.81;5061383;28;20045;-88
2021/06/04 01:06:37;;;;;;;69.32;64.13;;;;;;;12.28;100.00;101808.63;5072071;28;20056;-88
2021/06/04 01:09:26;;;;;;;66.47;61.28;;;;;;;12.37;100.00;101815.47;5060305;28;20056;-87
2021/06/04 01:12:21;;;;;;;65.97;61.08;;;;;;;12.10;100.00;101814.41;5060457;28;20061;-88
2021/06/04 01:15:06;;;;;;;79.75;73.75;;;;;;;12.20;100.00;101819.44;5063067;28;20056;-88
2021/06/04 01:17:48;;;;;;;63.22;58.33;;;;;;;12.27;100.00;101815.81;5066603;28;20537;-89
2021/06/04 01:20:18;;;;;;;62.25;57.42;;;;;;;12.36;100.00;101829.81;5067141;28;20072;-87
2021/06/04 01:23:06;;;;;;;63.92;58.85;;;;;;;12.45;100.00;101834.00;5074274;28;20041;-87
2021/06/04 01:25:49;;;;;;;70.05;64.40;;;;;;;12.41;100.00;101830.09;5060563;28;20060;-88
2021/06/04 01:28:25;;;;;;;62.10;57.05;;;;;;;12.43;100.00;101833.38;5061634;28;20106;-88
2021/06/04 01:31:09;;;;;;;62.88;57.97;;;;;;;12.43;100.00;101840.53;5070260;28;20051;-88
2021/06/04 01:33:42;;;;;;;60.38;55.78;;;;;;;12.37;100.00;101834.13;5063638;28;20114;-88
2021/06/04 01:36:11;;;;;;;63.53;58.17;;;;;;;12.38;100.00;101838.47;5065325;28;20506;-88
2021/06/04 01:38:40;;;;;;;70.50;65.22;;;;;;;12.34;100.00;101830.03;5057821;28;20072;-88
2021/06/04 01:41:17;;;;;;;58.95;54.35;;;;;;;12.43;100.00;101832.53;5057156;28;20068;-87
2021/06/04 01:43:48;;;;;;;61.90;57.13;;;;;;;12.44;100.00;101835.03;5069257;28;20049;-87
2021/06/04 01:46:19;;;;;;;53.27;48.87;;;;;;;12.40;100.00;101835.59;5069413;28;20048;-88
2021/06/04 01:48:51;;;;;;;60.08;55.33;;;;;;;12.38;100.00;101841.13;5067416;28;20064;-87
2021/06/04 01:51:27;;;;;;;58.33;53.73;;;;;;;12.35;100.00;101833.53;5061519;28;20049;-88
2021/06/04 01:53:58;;;;;;;63.13;58.00;;;;;;;12.36;100.00;101835.97;5064457;28;20784;-88
2021/06/04 01:56:33;;;;;;;56.45;51.95;;;;;;;12.41;100.00;101831.94;5071223;28;20402;-88
2021/06/04 01:59:06;;;;;;;57.45;52.70;;;;;;;12.43;100.00;101841.38;5067099;28;20065;-87
2021/06/04 02:01:35;;;;;;;63.92;58.70;;;;;;;12.22;100.00;101847.50;5059230;23;20102;-77
2021/06/04 02:04:04;;;;;;;60.30;55.40;;;;;;;12.23;100.00;101846.50;5050602;28;20047;-79
2021/06/04 02:06:32;;;;;;;72.95;67.32;;;;;;;12.32;100.00;101841.88;5055444;28;20064;-77
2021/06/04 02:09:00;;;;;;;69.85;64.20;;;;;;;12.36;100.00;101843.16;5053617;28;20041;-76
2021/06/04 02:11:30;;;;;;;67.88;62.55;;;;;;;12.30;100.00;101841.25;5053783;28;20049;-79
2021/06/04 02:14:00;;;;;;;62.75;57.75;;;;;;;12.28;100.00;101849.41;5054137;28;20460;-81
2021/06/04 02:16:44;;;;;;;64.63;59.45;;;;;;;12.27;100.00;101853.09;5055365;28;20056;-78
2021/06/04 02:19:21;;;;;;;66.35;61.15;;;;;;;12.26;100.00;101848.81;5044361;28;20056;-82
2021/06/04 02:21:52;;;;;;;61.20;56.30;;;;;;;12.20;100.00;101854.06;5053733;28;20111;-79
2021/06/04 02:24:29;;;;;;;70.03;64.55;;;;;;;12.28;100.00;101849.41;5053947;28;20049;-78
2021/06/04 02:27:02;;;;;;;59.97;55.05;;;;;;;12.29;100.00;101853.75;5050079;28;20536;-77
2021/06/04 02:29:35;;;;;;;61.20;56.35;;;;;;;12.31;100.00;101843.69;5050364;28;20087;-78
2021/06/04 02:32:06;;;;;;;63.00;58.00;;;;;;;12.28;100.00;101841.41;5053040;28;20076;-78
2021/06/04 02:34:38;;;;;;;61.58;56.58;;;;;;;12.36;100.00;101848.47;5054988;28;20045;-78
2021/06/04 02:37:09;;;;;;;60.25;55.58;;;;;;;12.40;100.00;101849.72;5054984;28;20045;-76
2021/06/04 02:39:40;;;;;;;55.28;50.97;;;;;;;12.24;100.00;101850.81;5053811;28;20049;-78
2021/06/04 02:42:12;;;;;;;61.17;56.47;;;;;;;12.21;100.00;101859.19;5051551;28;20076;-78
2021/06/04 02:44:43;;;;;;;58.70;54.10;;;;;;;12.15;100.00;101851.94;5041813;28;20049;-78
2021/06/04 02:47:14;;;;;;;60.92;56.30;;;;;;;12.14;100.00;101863.63;5043567;28;20064;-79
2021/06/04 02:49:42;;;;;;;59.85;55.08;;;;;;;12.20;100.00;101854.88;5036632;28;20119;-78
2021/06/04 02:52:30;;;;;;;68.82;63.65;;;;;;;12.09;100.00;101861.50;5043371;28;20521;-78
2021/06/04 02:54:57;;;;;;;60.40;54.78;;;;;;;12.10;100.00;101862.34;5039409;28;20118;-78
2021/06/04 02:57:27;;;;;;;55.45;51.15;;;;;;;12.11;100.00;101864.00;5049596;28;20049;-78
2021/06/04 02:59:54;;;;;;;62.78;57.83;;;;;;;12.09;100.00;101861.50;5035559;28;20397;-78
2021/06/04 03:02:23;;;;;;;69.78;64.18;;;;;;;12.10;100.00;101870.31;5035662;28;20452;-80
2021/06/04 03:04:52;;;;;;;67.30;62.22;;;;;;;12.13;100.00;101860.16;5045151;28;20049;-80
2021/06/04 03:07:25;;;;;;;58.67;54.35;;;;;;;12.14;100.00;101866.28;5054381;28;20405;-78
2021/06/04 03:09:53;;;;;;;60.17;55.75;;;;;;;12.18;100.00;101870.22;5042695;28;20053;-78
2021/06/04 03:12:23;;;;;;;56.83;52.53;;;;;;;12.18;100.00;101866.72;5041388;28;20441;-78
2021/06/04 03:14:53;;;;;;;57.67;53.03;;;;;;;12.08;100.00;101875.03;5038613;28;20050;-77
2021/06/04 03:17:21;;;;;;;56.42;52.22;;;;;;;12.10;100.00;101872.97;5046534;28;20103;-77
2021/06/04 03:19:47;;;;;;;53.17;49.08;;;;;;;12.22;100.00;101878.66;5046217;28;20048;-77
2021/06/04 03:22:20;;;;;;;58.53;54.20;;;;;;;12.23;100.00;101875.81;5052673;28;20057;-79
2021/06/04 03:24:46;;;;;;;;;;;;;;;12.33;100.00;101881.66;5045379;28;20393;-77
2021/06/04 03:27:15;;;;;;;54.33;50.33;;;;;;;12.28;100.00;101877.91;5052051;28;19921;-76
2021/06/04 03:29:42;;;;;;;61.95;57.35;;;;;;;12.41;100.00;101882.56;5045869;28;20045;-78
2021/06/04 03:32:13;;;;;;;60.05;55.65;;;;;;;12.49;100.00;101885.06;5046569;28;20048;-77
2021/06/04 03:34:40;;;;;;;63.20;58.72;;;;;;;12.50;100.00;101882.25;5048797;28;20049;-76
2021/06/04 03:37:07;;;;;;;59.67;55.20;;;;;;;12.55;100.00;101886.97;5052429;28;20107;-79
2021/06/04 03:42:27;;;;;;;68.40;63.55;;;;;;;12.72;100.00;101890.22;5046588;28;20431;-88
2021/06/04 03:45:06;;;;;;;59.67;55.17;;;;;;;13.62;100.00;101885.97;5037182;28;20049;-88
2021/06/04 03:47:36;;;;;;;57.30;52.25;;;;;;;12.98;100.00;101882.47;5039057;28;20053;-88
2021/06/04 03:50:05;;;;;;;57.17;53.20;;;;;;;12.93;100.00;101884.88;5034837;28;20134;-88
2021/06/04 03:52:33;;;;;;;57.75;53.40;;;;;;;12.88;100.00;101883.78;5010760;28;20169;-88
2021/06/04 03:55:00;;;;;;;58.00;54.00;;;;;;;12.66;100.00;101886.47;5050183;28;20061;-87
2021/06/04 03:57:30;;;;;;;56.10;51.85;;;;;;;12.66;100.00;101888.31;5038708;28;20079;-87
2021/06/04 03:59:57;;;;;;;65.65;61.15;;;;;;;12.84;100.00;101886.84;5045393;28;20049;-88
2021/06/04 04:02:26;;;;;;;59.38;55.28;;;;;;;12.87;100.00;101885.63;5036426;28;20050;-87
2021/06/04 04:04:59;;;;;;;59.50;55.20;;;;;;;13.00;100.00;101888.41;5041215;28;20044;-88
2021/06/04 04:07:28;;;;;;;60.90;56.60;;;;;;;12.99;100.00;101886.75;5035273;28;20129;-88
2021/06/04 04:10:07;;;;;;;62.10;57.75;;;;;;;13.08;100.00;101892.78;5035464;28;20060;-87
2021/06/04 04:12:34;;;;;;;58.97;54.53;;;;;;;13.11;100.00;101884.38;5031202;28;20046;-87
2021/06/04 04:15:01;;;;;;;62.13;57.80;;;;;;;13.20;100.00;101893.91;5043542;28;20053;-88
2021/06/04 04:17:29;;;;;;;60.80;56.70;;;;;;;13.35;100.00;101890.34;5047359;28;20486;-88
2021/06/04 04:20:12;;;;;;;61.83;57.15;;;;;;;13.43;100.00;101892.81;5037523;28;20434;-89
2021/06/04 04:25:28;;;;;;;59.00;54.92;;;;;;;13.52;100.00;101895.16;5035464;28;20053;-88
2021/06/04 04:27:57;;;;;;;64.20;59.78;;;;;;;13.48;100.00;101895.75;5032588;28;20132;-88
2021/06/04 04:30:24;;;;;;;63.08;58.78;;;;;;;13.62;100.00;101899.31;5035815;28;20491;-88
2021/06/04 04:32:55;;;;;;;66.38;61.97;;;;;;;13.66;100.00;101895.22;5032945;28;20498;-88
2021/06/04 04:35:36;;;;;;;67.25;62.90;;;;;;;13.81;100.00;101900.44;5051698;28;20137;-89
2021/06/04 04:38:03;;;;;;;65.68;61.35;;;;;;;13.92;100.00;101895.34;5052146;28;20045;-88
2021/06/04 04:40:34;;;;;;;64.40;60.00;;;;;;;14.01;100.00;101896.00;5052333;28;20510;-87
2021/06/04 04:43:01;;;;;;;61.63;57.42;;;;;;;14.07;100.00;101905.03;5051670;28;20056;-88
2021/06/04 04:45:33;;;;;;;65.93;61.15;;;;;;;14.04;100.00;101903.63;5052143;28;20052;-89
2021/06/04 04:48:01;;;;;;;62.83;58.63;;;;;;;14.05;100.00;101913.28;5038788;28;20054;-88
2021/06/04 04:50:36;;;;;;;61.85;57.20;;;;;;;14.13;100.00;101909.59;5039473;28;20052;-88
2021/06/04 04:53:05;;;;;;;63.33;58.83;;;;;;;14.26;100.00;101914.19;5047057;28;20045;-88
2021/06/04 04:55:34;;;;;;;65.05;60.55;;;;;;;14.30;100.00;101915.41;5051104;28;20057;-88
2021/06/04 04:58:08;;;;;;;64.47;60.15;;;;;;;14.30;100.00;101912.72;5036197;28;20430;-87
2021/06/04 05:00:48;;;;;;;59.15;54.75;;;;;;;14.42;100.00;101917.28;5053319;28;20494;-88
2021/06/04 05:03:21;;;;;;;58.97;54.92;;;;;;;14.46;100.00;101912.34;5053546;28;20061;-88
2021/06/04 05:05:53;;;;;;;55.95;51.90;;;;;;;14.56;100.00;101914.69;5034649;28;20052;-88
2021/06/04 05:08:19;;;;;;;55.95;51.83;;;;;;;14.46;100.00;101917.69;5040744;28;20049;-87
2021/06/04 05:10:46;;;;;;;53.80;49.90;;;;;;;14.48;100.00;101923.69;5042939;28;20053;-88
2021/06/04 05:13:34;;;;;;;57.83;53.55;;;;;;;14.61;100.00;101917.56;5036006;28;20041;-88
2021/06/04 05:16:11;;;;;;;54.13;50.13;;;;;;;14.62;100.00;101911.19;5036721;28;20501;-87
2021/06/04 05:18:39;;;;;;;52.50;48.58;;;;;;;14.76;100.00;101918.19;5034112;28;20054;-88
2021/06/04 05:21:26;;;;;;;54.00;49.88;;;;;;;14.87;100.00;101919.44;5033787;28;20053;-89
2021/06/04 05:23:54;;;;;;;54.88;50.97;;;;;;;14.99;100.00;101922.34;5041102;28;20053;-88
2021/06/04 05:26:21;;;;;;;51.60;47.92;;;;;;;15.06;100.00;101915.94;5033931;28;20049;-88
2021/06/04 05:28:49;;;;;;;54.78;50.80;;;;;;;15.21;100.00;101914.91;5041600;28;20048;-88
2021/06/04 05:31:18;;;;;;;57.05;52.92;;;;;;;15.32;100.00;101915.09;5047607;28;20048;-88
2021/06/04 05:34:08;;;;;;;57.85;53.75;;;;;;;15.45;100.00;101921.47;5038991;28;20045;-87
2021/06/04 05:36:40;;;;;;;57.03;52.90;;;;;;;15.72;100.00;101924.94;5050436;28;20086;-88
2021/06/04 05:39:18;;;;;;;51.30;47.50;;;;;;;15.90;100.00;101909.00;5050777;28;20098;-89
2021/06/04 05:41:49;;;;;;;43.45;40.25;;;;;;;15.72;100.00;101906.19;5039534;28;20053;-88
2021/06/04 05:44:24;;;;;;;44.70;41.50;;;;;;;16.08;100.00;101904.81;5033591;28;20053;-88
2021/06/04 05:47:13;;;;;;;42.35;39.33;;;;;;;16.13;100.00;101894.28;5048520;28;20049;-88
2021/06/04 05:49:41;;;;;;;41.83;38.72;;;;;;;16.23;100.00;101898.13;5040107;28;20049;-88
2021/06/04 05:52:19;;;;;;;40.67;37.88;;;;;;;16.48;100.00;101892.00;5033994;28;20049;-87
2021/06/04 05:54:48;;;;;;;40.97;38.30;;;;;;;16.56;100.00;101883.69;5041703;28;20398;-88
2021/06/04 05:57:21;;;;;;;38.90;36.40;;;;;;;16.81;100.00;101889.09;5033432;28;20049;-88
2021/06/04 05:59:49;;;;;;;35.97;33.67;;;;;;;17.01;100.00;101886.25;5033610;28;20466;-88
2021/06/04 06:02:16;;;;;;;40.75;37.95;;;;;;;16.72;100.00;101891.19;5036854;28;20140;-88
2021/06/04 06:04:52;;;;;;;42.50;39.70;;;;;;;17.03;100.00;101888.69;5037232;28;20049;-89
2021/06/04 06:07:23;;;;;;;40.50;37.80;;;;;;;17.13;100.00;101889.03;5032811;28;20053;-87
2021/06/04 06:09:50;;;;;;;41.10;38.22;;;;;;;17.08;100.00;101900.41;5044892;28;20052;-88
2021/06/04 06:12:18;;;;;;;37.67;35.17;;;;;;;17.16;100.00;101899.34;5036419;28;20423;-88
2021/06/04 06:14:44;;;;;;;37.00;34.60;;;;;;;17.34;100.00;101893.16;5033229;28;20049;-87
2021/06/04 06:17:12;;;;;;;40.17;37.47;;;;;;;17.51;100.00;101893.38;5035569;28;20046;-89
2021/06/04 06:22:25;;;;;;;42.45;39.70;;;;;;;17.52;100.00;101890.50;5042328;28;20064;-88
2021/06/04 06:24:52;;;;;;;42.35;39.33;;;;;;;17.55;100.00;101895.41;5044968;28;20053;-88
2021/06/04 06:27:21;;;;;;;38.88;36.58;;;;;;;17.59;100.00;101891.22;5035591;28;20204;-89
2021/06/04 06:29:48;;;;;;;35.92;33.63;;;;;;;17.84;100.00;101891.16;5035333;28;20415;-90
2021/06/04 06:32:19;;;;;;;43.47;40.67;;;;;;;18.04;100.00;101890.91;5033876;28;20487;-88
2021/06/04 06:34:49;;;;;;;39.30;36.70;;;;;;;17.93;100.00;101896.25;5042176;28;20077;-88
2021/06/04 06:37:17;;;;;;;36.92;34.42;;;;;;;17.67;100.00;101886.59;5032039;28;20088;-88
2021/06/04 06:39:56;;;;;;;37.58;35.17;;;;;;;17.68;100.00;101888.25;5044775;28;20041;-87
2021/06/04 06:42:25;;;;;;;39.17;36.58;;;;;;;17.65;100.00;101894.06;5042237;28;20041;-89
2021/06/04 06:45:01;;;;;;;43.92;40.92;;;;;;;17.88;100.00;101896.91;5043647;28;20052;-88
2021/06/04 06:47:28;;;;;;;44.35;41.30;;;;;;;17.80;100.00;101899.91;5041384;28;20057;-88
2021/06/04 06:49:54;;;;;;;39.30;36.63;;;;;;;17.79;100.00;101901.78;5041740;28;20052;-88
2021/06/04 06:52:20;;;;;;;39.63;36.78;;;;;;;17.80;100.00;101891.84;5031607;28;20053;-89
2021/06/04 06:54:50;;;;;;;40.58;37.58;;;;;;;17.97;100.00;101895.56;5042177;28;20103;-88
2021/06/04 06:57:19;;;;;;;37.38;34.88;;;;;;;18.04;100.00;101884.72;5044862;28;20053;-88
2021/06/04 06:59:46;;;;;;;40.75;38.15;;;;;;;17.99;100.00;101887.28;5038762;28;20084;-89
2021/06/04 07:02:13;;;;;;;41.83;38.85;;;;;;;18.03;100.00;101891.97;5045551;28;20053;-89
2021/06/04 07:04:40;;;;;;;35.78;33.17;;;;;;;17.94;100.00;101887.13;5046758;28;20044;-87
2021/06/04 07:07:08;;;;;;;45.17;41.97;;;;;;;18.46;100.00;101895.53;5052603;28;20041;-89
2021/06/04 07:09:36;;;;;;;40.00;37.10;;;;;;;18.33;100.00;101893.00;5049438;28;20064;-89
2021/06/04 07:12:08;;;;;;;38.20;35.60;;;;;;;18.18;100.00;101893.41;5035589;28;20045;-89
2021/06/04 07:14:55;;;;;;;42.22;39.20;;;;;;;18.22;100.00;101892.75;5046982;28;20529;-88
2021/06/04 07:17:23;;;;;;;41.15;38.35;;;;;;;18.19;100.00;101885.13;5043380;28;20060;-88
2021/06/04 07:19:50;;;;;;;46.30;42.90;;;;;;;18.64;100.00;101891.91;5046558;28;20084;-88
2021/06/04 07:22:24;;;;;;;46.10;42.95;;;;;;;18.59;100.00;101887.22;5051717;28;20052;-88
2021/06/04 07:24:57;;;;;;;49.92;46.53;;;;;;;18.86;100.00;101892.22;5042775;28;20486;-89
2021/06/04 07:27:27;;;;;;;50.83;47.47;;;;;;;18.74;100.00;101879.56;5050346;28;20049;-88
2021/06/04 07:29:57;;;;;;;53.13;49.33;;;;;;;18.86;100.00;101882.28;5041576;28;20049;-89
2021/06/04 07:32:23;;;;;;;40.00;37.70;;;;;;;18.46;100.00;101877.50;5035063;28;20057;-88
2021/06/04 07:34:50;;;;;;;45.53;42.53;;;;;;;18.28;100.00;101875.69;5047401;28;20049;-88
2021/06/04 07:37:23;;;;;;;48.70;45.80;;;;;;;18.87;100.00;101880.41;5051172;28;20041;-87
2021/06/04 07:39:51;;;;;;;49.55;46.55;;;;;;;18.89;100.00;101883.69;5045257;28;20135;-89
2021/06/04 07:42:18;;;;;;;38.65;36.22;;;;;;;18.30;100.00;101883.53;4999975;28;20050;-88
2021/06/04 07:44:53;;;;;;;34.95;32.85;;;;;;;17.97;100.00;101870.53;5006650;28;20046;-88
2021/06/04 07:47:21;;;;;;;41.80;39.00;;;;;;;18.60;100.00;101882.66;5000074;28;20057;-89
2021/06/04 07:49:51;;;;;;;40.17;37.80;;;;;;;19.10;100.00;101883.09;4997833;28;20046;-89
2021/06/04 07:52:19;;;;;;;41.08;38.58;;;;;;;19.30;100.00;101880.03;5003629;28;20484;-89
2021/06/04 07:55:02;;;;;;;35.58;33.38;;;;;;;18.80;100.00;101885.91;4996191;28;20104;-88
2021/06/04 07:57:29;;;;;;;36.00;33.90;;;;;;;18.97;100.00;101877.94;5000572;28;20047;-89
2021/06/04 08:00:05;;;;;;;38.30;35.95;;;;;;;19.28;100.00;101884.03;5004672;28;20127;-89
2021/06/04 08:02:35;;;;;;;32.90;31.00;;;;;;;19.09;100.00;101891.41;5007781;28;20108;-89
2021/06/04 08:05:04;;;;;;;35.35;33.45;;;;;;;18.56;100.00;101876.13;5009027;28;20053;-88
2021/06/04 08:07:33;;;;;;;35.58;33.75;;;;;;;19.31;100.00;101879.00;5013174;28;20132;-88
2021/06/04 08:10:10;;;;;;;39.05;36.85;;;;;;;19.87;100.00;101877.47;4996873;28;20097;-88
2021/06/04 08:12:42;;;;;;;34.88;32.78;;;;;;;19.94;100.00;101871.97;5001373;28;20128;-88
2021/06/04 08:15:37;;;;;;;35.00;33.15;;;;;;;19.81;100.00;101869.53;5011060;28;20050;-89
2021/06/04 08:18:04;;;;;;;39.80;37.40;;;;;;;20.08;100.00;101880.56;5012978;28;20050;-87
2021/06/04 08:20:35;;;;;;;37.72;35.63;;;;;;;19.53;100.00;101878.38;5008819;28;20057;-87
2021/06/04 08:23:11;;;;;;;41.83;39.55;;;;;;;19.42;100.00;101886.22;5010772;28;20046;-87
2021/06/04 08:25:47;;;;;;;46.33;43.65;;;;;;;20.26;100.00;101883.06;4997941;28;20062;-88
2021/06/04 08:28:14;;;;;;;47.17;44.63;;;;;;;20.12;100.00;101885.25;5007680;28;20046;-88
2021/06/04 08:30:42;;;;;;;45.65;43.15;;;;;;;20.35;100.00;101872.69;5009430;28;20097;-87
2021/06/04 08:33:09;;;;;;;43.22;40.92;;;;;;;20.41;100.00;101882.50;5012043;28;20053;-88
2021/06/04 08:35:36;;;;;;;42.38;40.17;;;;;;;19.95;100.00;101881.69;5006690;28;20046;-89
2021/06/04 08:38:04;;;;;;;39.25;37.25;;;;;;;19.64;100.00;101883.78;5003049;28;20047;-88
2021/06/04 08:40:34;;;;;;;45.30;42.70;;;;;;;19.54;100.00;101877.31;5023433;28;20536;-88
2021/06/04 08:43:21;;;;;;;44.85;42.40;;;;;;;19.69;100.00;101880.34;5051554;28;20435;-87
2021/06/04 08:46:05;;;;;;;47.65;44.85;;;;;;;19.49;100.00;101896.09;5043886;28;20495;-87
2021/06/04 08:48:54;;;;;;;37.47;35.67;;;;;;;18.93;100.00;101882.16;5044563;28;20053;-88
2021/06/04 08:51:31;;;;;;;46.38;43.95;;;;;;;19.29;100.00;101881.09;5035906;28;20129;-88
2021/06/04 08:54:29;;;;;;;42.22;39.92;;;;;;;19.30;100.00;101879.22;5053589;28;20057;-88
2021/06/04 08:57:06;;;;;;;38.20;35.95;;;;;;;19.27;100.00;101885.06;5048784;28;20077;-89
2021/06/04 09:02:34;;;;;;;39.20;36.97;;;;;;;19.54;100.00;101886.19;5039810;28;20498;-87
2021/06/04 09:05:16;;;;;;;36.38;34.28;;;;;;;19.90;100.00;101868.91;5045687;28;20107;-88
2021/06/04 09:07:56;;;;;;;35.30;33.40;;;;;;;19.70;100.00;101875.78;5034753;28;20042;-88
2021/06/04 09:10:32;;;;;;;33.38;31.58;;;;;;;19.72;100.00;101862.88;5035974;28;20049;-88
2021/06/04 09:13:11;;;;;;;34.05;32.00;;;;;;;20.21;100.00;101871.34;5041279;28;20110;-88
2021/06/04 09:15:43;;;;;;;32.70;30.90;;;;;;;19.61;100.00;101862.66;5044247;28;20049;-88
2021/06/04 09:18:15;;;;;;;35.75;33.67;;;;;;;19.87;100.00;101866.69;5047316;28;20438;-89
2021/06/04 09:20:50;;;;;;;42.35;39.70;;;;;;;21.01;100.00;101860.28;5047579;28;20049;-87
2021/06/04 09:23:21;;;;;;;38.30;36.10;;;;;;;20.38;100.00;101855.22;5052526;28;20037;-88
2021/06/04 09:25:49;;;;;;;40.08;37.67;;;;;;;20.46;100.00;101857.50;5047317;28;20041;-88
2021/06/04 09:28:29;;;;;;;36.65;34.45;;;;;;;19.92;100.00;101854.38;5045102;28;20037;-89
2021/06/04 09:31:21;;;;;;;34.15;32.15;;;;;;;19.64;100.00;101855.97;5045136;28;20045;-88
2021/06/04 09:33:53;;;;;;;33.27;31.13;;;;;;;19.01;100.00;101868.34;5038784;28;20468;-87
2021/06/04 09:36:42;;;;;;;31.90;30.00;;;;;;;21.33;100.00;101839.91;5053134;28;20060;-87
2021/06/04 09:39:46;;;;;;;33.25;31.50;;;;;;;22.09;100.00;101837.28;5044113;28;20049;-88
2021/06/04 09:42:25;;;;;;;31.60;29.67;;;;;;;22.50;100.00;101837.66;5040077;28;20052;-88
2021/06/04 09:45:01;;;;;;;28.55;26.90;;;;;;;22.31;100.00;101837.25;5043482;28;20498;-88
2021/06/04 09:47:36;;;;;;;29.27;27.67;;;;;;;22.16;100.00;101824.38;5046247;28;20045;-87
2021/06/04 09:50:29;;;;;;;30.90;29.30;;;;;;;20.70;100.00;101836.59;5043171;28;20499;-88
2021/06/04 09:53:09;;;;;;;28.67;27.08;;;;;;;20.54;100.00;101844.44;5051570;28;20041;-89
2021/06/04 09:55:38;;;;;;;29.40;27.80;;;;;;;20.63;100.00;101842.16;5045633;28;20052;-89
2021/06/04 09:58:26;;;;;;;30.50;28.90;;;;;;;20.85;100.00;101834.13;5044251;28;20124;-87
2021/06/04 10:01:11;;;;;;;31.67;29.73;;;;;;;20.75;100.00;101832.09;5043909;28;20045;-88
2021/06/04 10:04:16;;;;;;;37.33;35.53;;;;;;;20.66;100.00;101830.88;5043363;28;20099;-88
2021/06/04 10:07:16;;;;;;;34.83;32.75;;;;;;;20.41;100.00;101833.94;5042375;28;20137;-89
2021/06/04 10:09:47;;;;;;;38.92;36.92;;;;;;;20.04;100.00;101831.69;5041764;28;20052;-89
2021/06/04 10:12:30;;;;;;;31.88;30.05;;;;;;;20.84;100.00;101832.47;5047890;28;20403;-88
2021/06/04 10:15:01;;;;;;;34.70;32.67;;;;;;;20.41;100.00;101822.34;5041640;28;20041;-89
2021/06/04 10:18:01;;;;;;;35.55;33.75;;;;;;;21.26;100.00;101830.09;5038465;28;20096;-88
2021/06/04 10:20:43;;;;;;;32.88;31.23;;;;;;;19.66;100.00;101830.44;5044739;28;20502;-89
2021/06/04 10:23:41;;;;;;;38.22;36.08;;;;;;;20.69;100.00;101826.84;5049945;28;20056;-88
2021/06/04 10:26:36;;;;;;;36.03;34.13;;;;;;;19.97;100.00;101822.09;5035050;28;20046;-88
2021/06/04 10:29:16;;;;;;;28.80;27.17;;;;;;;20.07;100.00;101827.69;5041285;28;20049;-88
2021/06/04 10:32:02;;;;;;;26.80;25.20;;;;;;;20.99;100.00;101824.59;5042123;28;20049;-88
2021/06/04 10:35:12;;;;;;;27.83;26.23;;;;;;;20.88;100.00;101832.81;5043683;28;20069;-89
2021/06/04 10:37:45;;;;;;;28.60;27.00;;;;;;;19.81;100.00;101829.09;5050263;28;20556;-89
2021/06/04 10:40:31;;;;;;;28.85;27.42;;;;;;;20.48;100.00;101822.97;5038612;28;20119;-88
2021/06/04 10:43:38;;;;;;;28.98;27.25;;;;;;;20.20;100.00;101831.97;5047587;28;20045;-88
2021/06/04 10:46:15;;;;;;;28.23;26.75;;;;;;;20.22;100.00;101827.97;5041640;28;20493;-88
2021/06/04 10:49:09;;;;;;;29.73;27.98;;;;;;;20.36;100.00;101823.91;5048378;28;20057;-88
2021/06/04 10:51:50;;;;;;;29.75;28.15;;;;;;;20.75;100.00;101828.56;5052587;28;20088;-88
2021/06/04 10:54:25;;;;;;;27.23;25.65;;;;;;;20.43;100.00;101823.75;5037974;28;20049;-89
2021/06/04 10:57:25;;;;;;;29.38;27.77;;;;;;;20.70;100.00;101823.94;5039910;28;20049;-88
2021/06/04 11:00:11;;;;;;;28.50;26.92;;;;;;;19.79;100.00;101826.66;5044895;28;20064;-87
2021/06/04 11:02:46;;;;;;;27.30;25.73;;;;;;;20.37;100.00;101832.81;5043269;28;20041;-89
2021/06/04 11:05:31;;;;;;;27.48;26.05;;;;;;;20.63;100.00;101828.66;5042567;28;20045;-89
2021/06/04 11:08:17;;;;;;;30.40;28.80;;;;;;;21.47;100.00;101823.09;5043802;28;20045;-89
2021/06/04 11:11:02;;;;;;;28.15;26.42;;;;;;;21.26;100.00;101823.88;5039922;28;20131;-88
2021/06/04 11:14:13;;;;;;;29.17;27.42;;;;;;;21.33;100.00;101823.69;5044091;28;20048;-89
2021/06/04 11:16:48;;;;;;;26.55;25.05;;;;;;;20.76;100.00;101822.94;5041375;28;20060;-89
2021/06/04 11:19:19;;;;;;;26.83;25.25;;;;;;;21.00;100.00;101820.84;5045547;28;20056;-89
2021/06/04 11:22:02;;;;;;;27.73;26.23;;;;;;;20.66;100.00;101824.66;5051273;28;20456;-89
2021/06/04 11:24:40;;;;;;;;;;;;;;;20.84;100.00;101823.56;5045629;28;20055;-88
2021/06/04 11:27:07;;;;;;;27.42;25.63;;;;;;;21.20;100.00;101816.78;5045279;28;20312;-89
2021/06/04 11:29:40;;;;;;;26.67;25.15;;;;;;;21.22;100.00;101820.88;5040723;28;20048;-88
2021/06/04 11:32:12;;;;;;;26.58;24.88;;;;;;;21.04;100.00;101827.38;5049739;28;20052;-89
2021/06/04 11:34:56;;;;;;;27.00;25.60;;;;;;;20.32;100.00;101821.94;5036173;28;20053;-88
2021/06/04 11:37:37;;;;;;;28.02;26.50;;;;;;;20.43;100.00;101826.44;5042897;28;20061;-89
2021/06/04 11:40:12;;;;;;;27.95;26.05;;;;;;;19.71;100.00;101823.53;5049941;28;20060;-88
2021/06/04 11:43:04;;;;;;;27.77;26.27;;;;;;;19.94;100.00;101820.75;5047273;28;20498;-88
2021/06/04 11:45:34;;;;;;;;;;;;;;;19.64;100.00;101820.94;5048601;28;20131;-88
2021/06/04 11:48:35;;;;;;;27.92;26.13;;;;;;;20.54;100.00;101819.34;5038588;28;19931;-88